sensor_id;sensor_type;location;lat;lon;timestamp;P1;durP1;ratioP1;P2;durP2;ratioP2
64857;SDS011;51335;51.148;6.950;2023-03-03T00:00:28;54.70;;;28.10;;
64857;SDS011;51335;51.148;6.950;2023-03-03T00:00:58;53.45;;;27.33;;
64857;SDS011;51335;51.148;6.950;2023-03-03T00:01:29;54.13;;;27.65;;
64857;SDS011;51335;51.148;6.950;2023-03-03T00:02:00;52.75;;;27.77;;
64857;SDS011;51335;51.148;6.950;2023-03-03T00:02:30;55.55;;;29.20;;
64857;SDS011;51335;51.148;6.950;2023-03-03T00:03:01;51.17;;;27.88;;
64857;SDS011;51335;51.148;6.950;2023-03-03T00:03:35;52.40;;;26.83;;
64857;SDS011;51335;51.148;6.950;2023-03-03T00:04:05;54.83;;;27.75;;
64857;SDS011;51335;51.148;6.950;2023-03-03T00:04:35;52.45;;;27.35;;
64857;SDS011;51335;51.148;6.950;2023-03-03T00:05:05;50.50;;;27.27;;
64857;SDS011;51335;51.148;6.950;2023-03-03T00:05:36;55.38;;;28.15;;
64857;SDS011;51335;51.148;6.950;2023-03-03T00:06:08;53.40;;;28.55;;
64857;SDS011;51335;51.148;6.950;2023-03-03T00:06:40;57.78;;;28.77;;
64857;SDS011;51335;51.148;6.950;2023-03-03T00:07:10;56.50;;;29.42;;
64857;SDS011;51335;51.148;6.950;2023-03-03T00:07:42;56.90;;;29.98;;
64857;SDS011;51335;51.148;6.950;2023-03-03T00:08:13;53.65;;;28.52;;
64857;SDS011;51335;51.148;6.950;2023-03-03T00:08:44;54.35;;;28.40;;
64857;SDS011;51335;51.148;6.950;2023-03-03T00:09:15;58.92;;;28.83;;
64857;SDS011;51335;51.148;6.950;2023-03-03T00:09:45;58.55;;;29.15;;
64857;SDS011;51335;51.148;6.950;2023-03-03T00:10:16;56.35;;;29.38;;
64857;SDS011;51335;51.148;6.950;2023-03-03T00:10:46;64.15;;;30.38;;
64857;SDS011;51335;51.148;6.950;2023-03-03T00:11:16;59.97;;;29.77;;
64857;SDS011;51335;51.148;6.950;2023-03-03T00:11:48;65.15;;;30.35;;
64857;SDS011;51335;51.148;6.950;2023-03-03T00:12:24;58.67;;;29.17;;
64857;SDS011;51335;51.148;6.950;2023-03-03T00:12:57;56.72;;;28.42;;
64857;SDS011;51335;51.148;6.950;2023-03-03T00:13:27;54.63;;;28.23;;
64857;SDS011;51335;51.148;6.950;2023-03-03T00:13:59;55.72;;;27.48;;
64857;SDS011;51335;51.148;6.950;2023-03-03T00:14:30;56.15;;;28.25;;
64857;SDS011;51335;51.148;6.950;2023-03-03T00:15:11;56.53;;;29.20;;
64857;SDS011;51335;51.148;6.950;2023-03-03T00:15:43;56.33;;;27.98;;
64857;SDS011;51335;51.148;6.950;2023-03-03T00:16:56;59.90;;;27.65;;
64857;SDS011;51335;51.148;6.950;2023-03-03T00:17:12;54.67;;;26.17;;
64857;SDS011;51335;51.148;6.950;2023-03-03T00:17:50;52.08;;;25.27;;
64857;SDS011;51335;51.148;6.950;2023-03-03T00:19:11;57.22;;;28.70;;
64857;SDS011;51335;51.148;6.950;2023-03-03T00:19:44;55.33;;;27.17;;
64857;SDS011;51335;51.148;6.950;2023-03-03T00:21:07;52.60;;;26.50;;
64857;SDS011;51335;51.148;6.950;2023-03-03T00:21:52;52.17;;;25.38;;
64857;SDS011;51335;51.148;6.950;2023-03-03T00:22:30;52.90;;;25.70;;
64857;SDS011;51335;51.148;6.950;2023-03-03T00:24:48;56.75;;;26.63;;
64857;SDS011;51335;51.148;6.950;2023-03-03T00:25:29;56.90;;;26.13;;
64857;SDS011;51335;51.148;6.950;2023-03-03T00:26:00;51.47;;;26.50;;
64857;SDS011;51335;51.148;6.950;2023-03-03T00:26:34;57.83;;;27.17;;
64857;SDS011;51335;51.148;6.950;2023-03-03T00:27:16;52.33;;;26.77;;
64857;SDS011;51335;51.148;6.950;2023-03-03T00:27:55;53.10;;;25.83;;
64857;SDS011;51335;51.148;6.950;2023-03-03T00:28:51;55.70;;;26.25;;
64857;SDS011;51335;51.148;6.950;2023-03-03T00:29:34;53.78;;;26.92;;
64857;SDS011;51335;51.148;6.950;2023-03-03T00:30:24;51.80;;;25.67;;
64857;SDS011;51335;51.148;6.950;2023-03-03T00:30:59;56.83;;;27.38;;
64857;SDS011;51335;51.148;6.950;2023-03-03T00:32:23;60.40;;;28.67;;
64857;SDS011;51335;51.148;6.950;2023-03-03T00:33:22;61.40;;;26.55;;
64857;SDS011;51335;51.148;6.950;2023-03-03T00:33:53;57.97;;;27.52;;
64857;SDS011;51335;51.148;6.950;2023-03-03T00:34:25;59.33;;;28.35;;
64857;SDS011;51335;51.148;6.950;2023-03-03T00:35:00;60.05;;;28.85;;
64857;SDS011;51335;51.148;6.950;2023-03-03T00:35:46;61.78;;;29.00;;
64857;SDS011;51335;51.148;6.950;2023-03-03T00:37:10;61.28;;;28.30;;
64857;SDS011;51335;51.148;6.950;2023-03-03T00:37:58;59.55;;;28.20;;
64857;SDS011;51335;51.148;6.950;2023-03-03T00:38:30;58.80;;;29.70;;
64857;SDS011;51335;51.148;6.950;2023-03-03T00:39:14;65.95;;;30.50;;
64857;SDS011;51335;51.148;6.950;2023-03-03T00:39:48;62.92;;;29.17;;
64857;SDS011;51335;51.148;6.950;2023-03-03T00:40:49;62.38;;;29.73;;
64857;SDS011;51335;51.148;6.950;2023-03-03T00:41:23;63.03;;;31.15;;
64857;SDS011;51335;51.148;6.950;2023-03-03T00:41:59;65.75;;;30.80;;
64857;SDS011;51335;51.148;6.950;2023-03-03T00:42:29;58.17;;;29.02;;
64857;SDS011;51335;51.148;6.950;2023-03-03T00:43:25;64.97;;;29.90;;
64857;SDS011;51335;51.148;6.950;2023-03-03T00:43:57;58.42;;;29.33;;
64857;SDS011;51335;51.148;6.950;2023-03-03T00:45:03;65.90;;;30.33;;
64857;SDS011;51335;51.148;6.950;2023-03-03T00:45:50;61.75;;;30.20;;
64857;SDS011;51335;51.148;6.950;2023-03-03T00:46:22;62.67;;;29.63;;
64857;SDS011;51335;51.148;6.950;2023-03-03T00:46:52;64.20;;;30.17;;
64857;SDS011;51335;51.148;6.950;2023-03-03T00:47:35;70.88;;;31.25;;
64857;SDS011;51335;51.148;6.950;2023-03-03T00:48:59;63.28;;;27.80;;
64857;SDS011;51335;51.148;6.950;2023-03-03T00:49:29;60.95;;;28.88;;
64857;SDS011;51335;51.148;6.950;2023-03-03T00:50:36;59.65;;;29.48;;
64857;SDS011;51335;51.148;6.950;2023-03-03T00:51:52;63.00;;;28.77;;
64857;SDS011;51335;51.148;6.950;2023-03-03T00:52:23;62.97;;;30.30;;
64857;SDS011;51335;51.148;6.950;2023-03-03T00:53:33;61.22;;;29.15;;
64857;SDS011;51335;51.148;6.950;2023-03-03T00:54:03;65.75;;;30.80;;
64857;SDS011;51335;51.148;6.950;2023-03-03T00:54:33;64.50;;;29.48;;
64857;SDS011;51335;51.148;6.950;2023-03-03T00:55:04;67.13;;;31.63;;
64857;SDS011;51335;51.148;6.950;2023-03-03T00:55:36;65.85;;;30.60;;
64857;SDS011;51335;51.148;6.950;2023-03-03T00:56:06;67.07;;;31.73;;
64857;SDS011;51335;51.148;6.950;2023-03-03T00:56:36;63.10;;;30.33;;
64857;SDS011;51335;51.148;6.950;2023-03-03T00:57:06;65.82;;;30.30;;
64857;SDS011;51335;51.148;6.950;2023-03-03T00:57:37;69.35;;;32.00;;
64857;SDS011;51335;51.148;6.950;2023-03-03T00:58:07;71.55;;;31.80;;
64857;SDS011;51335;51.148;6.950;2023-03-03T00:58:37;63.88;;;31.05;;
64857;SDS011;51335;51.148;6.950;2023-03-03T00:59:08;66.13;;;30.08;;
64857;SDS011;51335;51.148;6.950;2023-03-03T00:59:38;68.22;;;31.10;;
64857;SDS011;51335;51.148;6.950;2023-03-03T01:00:09;63.80;;;30.23;;
64857;SDS011;51335;51.148;6.950;2023-03-03T01:00:40;67.10;;;31.05;;
64857;SDS011;51335;51.148;6.950;2023-03-03T01:01:11;64.53;;;31.33;;
64857;SDS011;51335;51.148;6.950;2023-03-03T01:01:41;69.25;;;30.52;;
64857;SDS011;51335;51.148;6.950;2023-03-03T01:02:11;69.50;;;31.85;;
64857;SDS011;51335;51.148;6.950;2023-03-03T01:02:41;62.75;;;30.05;;
64857;SDS011;51335;51.148;6.950;2023-03-03T01:03:13;62.10;;;30.73;;
64857;SDS011;51335;51.148;6.950;2023-03-03T01:03:46;61.22;;;29.20;;
64857;SDS011;51335;51.148;6.950;2023-03-03T01:04:16;71.03;;;31.85;;
64857;SDS011;51335;51.148;6.950;2023-03-03T01:04:52;70.07;;;30.92;;
64857;SDS011;51335;51.148;6.950;2023-03-03T01:05:23;63.10;;;29.55;;
64857;SDS011;51335;51.148;6.950;2023-03-03T01:05:53;69.05;;;31.35;;
64857;SDS011;51335;51.148;6.950;2023-03-03T01:06:23;70.80;;;31.73;;
64857;SDS011;51335;51.148;6.950;2023-03-03T01:06:54;69.97;;;31.25;;
64857;SDS011;51335;51.148;6.950;2023-03-03T01:07:24;65.55;;;30.38;;
64857;SDS011;51335;51.148;6.950;2023-03-03T01:07:54;70.95;;;32.13;;
64857;SDS011;51335;51.148;6.950;2023-03-03T01:08:25;70.05;;;30.75;;
64857;SDS011;51335;51.148;6.950;2023-03-03T01:08:55;65.05;;;31.27;;
64857;SDS011;51335;51.148;6.950;2023-03-03T01:09:25;63.95;;;30.27;;
64857;SDS011;51335;51.148;6.950;2023-03-03T01:09:55;67.68;;;32.30;;
64857;SDS011;51335;51.148;6.950;2023-03-03T01:10:26;61.42;;;30.02;;
64857;SDS011;51335;51.148;6.950;2023-03-03T01:11:00;67.38;;;31.50;;
64857;SDS011;51335;51.148;6.950;2023-03-03T01:11:43;64.95;;;28.67;;
64857;SDS011;51335;51.148;6.950;2023-03-03T01:12:13;65.38;;;29.85;;
64857;SDS011;51335;51.148;6.950;2023-03-03T01:12:44;71.40;;;31.85;;
64857;SDS011;51335;51.148;6.950;2023-03-03T01:13:15;69.80;;;31.20;;
64857;SDS011;51335;51.148;6.950;2023-03-03T01:13:46;67.13;;;31.40;;
64857;SDS011;51335;51.148;6.950;2023-03-03T01:14:18;62.97;;;29.42;;
64857;SDS011;51335;51.148;6.950;2023-03-03T01:14:49;64.65;;;30.02;;
64857;SDS011;51335;51.148;6.950;2023-03-03T01:15:29;68.53;;;31.08;;
64857;SDS011;51335;51.148;6.950;2023-03-03T01:15:59;64.63;;;29.23;;
64857;SDS011;51335;51.148;6.950;2023-03-03T01:16:31;70.72;;;31.75;;
64857;SDS011;51335;51.148;6.950;2023-03-03T01:17:01;69.32;;;31.10;;
64857;SDS011;51335;51.148;6.950;2023-03-03T01:17:32;66.10;;;30.27;;
64857;SDS011;51335;51.148;6.950;2023-03-03T01:18:02;69.30;;;31.45;;
64857;SDS011;51335;51.148;6.950;2023-03-03T01:18:33;66.03;;;29.45;;
64857;SDS011;51335;51.148;6.950;2023-03-03T01:19:04;66.10;;;30.73;;
64857;SDS011;51335;51.148;6.950;2023-03-03T01:19:34;65.25;;;29.52;;
64857;SDS011;51335;51.148;6.950;2023-03-03T01:20:05;72.13;;;31.00;;
64857;SDS011;51335;51.148;6.950;2023-03-03T01:20:37;66.45;;;29.45;;
64857;SDS011;51335;51.148;6.950;2023-03-03T01:21:08;67.85;;;31.50;;
64857;SDS011;51335;51.148;6.950;2023-03-03T01:21:39;68.78;;;30.60;;
64857;SDS011;51335;51.148;6.950;2023-03-03T01:22:09;67.18;;;30.77;;
64857;SDS011;51335;51.148;6.950;2023-03-03T01:22:39;66.40;;;29.92;;
64857;SDS011;51335;51.148;6.950;2023-03-03T01:23:10;67.72;;;30.77;;
64857;SDS011;51335;51.148;6.950;2023-03-03T01:23:40;67.25;;;30.35;;
64857;SDS011;51335;51.148;6.950;2023-03-03T01:24:11;64.53;;;31.13;;
64857;SDS011;51335;51.148;6.950;2023-03-03T01:24:41;69.45;;;30.60;;
64857;SDS011;51335;51.148;6.950;2023-03-03T01:25:12;69.32;;;30.65;;
64857;SDS011;51335;51.148;6.950;2023-03-03T01:25:42;62.47;;;30.52;;
64857;SDS011;51335;51.148;6.950;2023-03-03T01:26:12;69.93;;;30.48;;
64857;SDS011;51335;51.148;6.950;2023-03-03T01:26:43;59.70;;;28.00;;
64857;SDS011;51335;51.148;6.950;2023-03-03T01:27:13;65.50;;;30.35;;
64857;SDS011;51335;51.148;6.950;2023-03-03T01:27:43;56.78;;;27.67;;
64857;SDS011;51335;51.148;6.950;2023-03-03T01:28:13;68.88;;;28.98;;
64857;SDS011;51335;51.148;6.950;2023-03-03T01:28:44;66.55;;;29.38;;
64857;SDS011;51335;51.148;6.950;2023-03-03T01:29:14;63.28;;;28.63;;
64857;SDS011;51335;51.148;6.950;2023-03-03T01:29:44;58.63;;;28.83;;
64857;SDS011;51335;51.148;6.950;2023-03-03T01:30:15;60.15;;;29.90;;
64857;SDS011;51335;51.148;6.950;2023-03-03T01:30:45;64.03;;;30.42;;
64857;SDS011;51335;51.148;6.950;2023-03-03T01:31:16;62.92;;;28.23;;
64857;SDS011;51335;51.148;6.950;2023-03-03T01:31:46;64.18;;;29.83;;
64857;SDS011;51335;51.148;6.950;2023-03-03T01:32:16;64.75;;;30.02;;
64857;SDS011;51335;51.148;6.950;2023-03-03T01:32:46;64.00;;;30.27;;
64857;SDS011;51335;51.148;6.950;2023-03-03T01:33:17;62.83;;;30.25;;
64857;SDS011;51335;51.148;6.950;2023-03-03T01:33:47;67.38;;;30.80;;
64857;SDS011;51335;51.148;6.950;2023-03-03T01:34:18;63.75;;;29.92;;
64857;SDS011;51335;51.148;6.950;2023-03-03T01:34:48;67.60;;;30.40;;
64857;SDS011;51335;51.148;6.950;2023-03-03T01:35:18;63.03;;;28.90;;
64857;SDS011;51335;51.148;6.950;2023-03-03T01:35:49;67.53;;;30.60;;
64857;SDS011;51335;51.148;6.950;2023-03-03T01:36:26;60.85;;;28.40;;
64857;SDS011;51335;51.148;6.950;2023-03-03T01:36:57;63.05;;;28.15;;
64857;SDS011;51335;51.148;6.950;2023-03-03T01:37:27;62.92;;;29.13;;
64857;SDS011;51335;51.148;6.950;2023-03-03T01:37:57;60.90;;;28.00;;
64857;SDS011;51335;51.148;6.950;2023-03-03T01:38:28;66.70;;;30.58;;
64857;SDS011;51335;51.148;6.950;2023-03-03T01:38:58;64.65;;;29.80;;
64857;SDS011;51335;51.148;6.950;2023-03-03T01:39:29;62.90;;;28.83;;
64857;SDS011;51335;51.148;6.950;2023-03-03T01:39:59;61.58;;;27.95;;
64857;SDS011;51335;51.148;6.950;2023-03-03T01:40:30;57.90;;;27.75;;
64857;SDS011;51335;51.148;6.950;2023-03-03T01:41:01;64.68;;;28.52;;
64857;SDS011;51335;51.148;6.950;2023-03-03T01:41:31;58.38;;;27.70;;
64857;SDS011;51335;51.148;6.950;2023-03-03T01:42:02;59.45;;;28.55;;
64857;SDS011;51335;51.148;6.950;2023-03-03T01:42:32;58.95;;;28.75;;
64857;SDS011;51335;51.148;6.950;2023-03-03T01:43:02;63.95;;;28.90;;
64857;SDS011;51335;51.148;6.950;2023-03-03T01:43:33;62.63;;;29.02;;
64857;SDS011;51335;51.148;6.950;2023-03-03T01:44:03;61.03;;;28.83;;
64857;SDS011;51335;51.148;6.950;2023-03-03T01:44:34;58.35;;;28.25;;
64857;SDS011;51335;51.148;6.950;2023-03-03T01:45:11;58.45;;;27.73;;
64857;SDS011;51335;51.148;6.950;2023-03-03T01:47:05;59.28;;;27.15;;
64857;SDS011;51335;51.148;6.950;2023-03-03T01:47:53;60.53;;;26.55;;
64857;SDS011;51335;51.148;6.950;2023-03-03T01:48:30;56.58;;;26.17;;
64857;SDS011;51335;51.148;6.950;2023-03-03T01:49:10;57.17;;;27.55;;
64857;SDS011;51335;51.148;6.950;2023-03-03T01:50:07;57.03;;;25.90;;
64857;SDS011;51335;51.148;6.950;2023-03-03T01:50:44;53.38;;;25.95;;
64857;SDS011;51335;51.148;6.950;2023-03-03T01:51:21;50.47;;;24.40;;
64857;SDS011;51335;51.148;6.950;2023-03-03T01:51:56;55.05;;;25.58;;
64857;SDS011;51335;51.148;6.950;2023-03-03T01:52:33;49.13;;;23.67;;
64857;SDS011;51335;51.148;6.950;2023-03-03T01:53:10;56.08;;;26.95;;
64857;SDS011;51335;51.148;6.950;2023-03-03T01:53:49;50.88;;;23.88;;
64857;SDS011;51335;51.148;6.950;2023-03-03T01:54:44;54.38;;;26.33;;
64857;SDS011;51335;51.148;6.950;2023-03-03T01:55:18;52.95;;;24.88;;
64857;SDS011;51335;51.148;6.950;2023-03-03T01:55:52;55.50;;;26.75;;
64857;SDS011;51335;51.148;6.950;2023-03-03T01:56:22;51.78;;;23.80;;
64857;SDS011;51335;51.148;6.950;2023-03-03T01:56:54;54.55;;;24.88;;
64857;SDS011;51335;51.148;6.950;2023-03-03T01:57:32;53.05;;;25.77;;
64857;SDS011;51335;51.148;6.950;2023-03-03T01:58:07;56.03;;;24.33;;
64857;SDS011;51335;51.148;6.950;2023-03-03T01:58:40;55.35;;;26.05;;
64857;SDS011;51335;51.148;6.950;2023-03-03T01:59:25;54.70;;;25.92;;
64857;SDS011;51335;51.148;6.950;2023-03-03T02:00:00;55.70;;;24.63;;
64857;SDS011;51335;51.148;6.950;2023-03-03T02:00:32;53.58;;;25.00;;
64857;SDS011;51335;51.148;6.950;2023-03-03T02:01:06;51.97;;;24.70;;
64857;SDS011;51335;51.148;6.950;2023-03-03T02:01:40;53.03;;;24.80;;
64857;SDS011;51335;51.148;6.950;2023-03-03T02:02:11;53.97;;;26.08;;
64857;SDS011;51335;51.148;6.950;2023-03-03T02:02:42;55.75;;;26.45;;
64857;SDS011;51335;51.148;6.950;2023-03-03T02:03:13;57.25;;;26.38;;
64857;SDS011;51335;51.148;6.950;2023-03-03T02:03:43;52.75;;;25.70;;
64857;SDS011;51335;51.148;6.950;2023-03-03T02:04:14;54.25;;;26.30;;
64857;SDS011;51335;51.148;6.950;2023-03-03T02:04:46;51.85;;;24.88;;
64857;SDS011;51335;51.148;6.950;2023-03-03T02:05:16;52.90;;;25.85;;
64857;SDS011;51335;51.148;6.950;2023-03-03T02:05:47;56.80;;;26.05;;
64857;SDS011;51335;51.148;6.950;2023-03-03T02:06:20;51.67;;;25.40;;
64857;SDS011;51335;51.148;6.950;2023-03-03T02:06:55;52.97;;;26.17;;
64857;SDS011;51335;51.148;6.950;2023-03-03T02:07:29;56.28;;;25.90;;
64857;SDS011;51335;51.148;6.950;2023-03-03T02:08:00;55.63;;;26.33;;
64857;SDS011;51335;51.148;6.950;2023-03-03T02:08:34;56.88;;;26.17;;
64857;SDS011;51335;51.148;6.950;2023-03-03T02:09:31;55.83;;;26.27;;
64857;SDS011;51335;51.148;6.950;2023-03-03T02:10:12;56.22;;;24.90;;
64857;SDS011;51335;51.148;6.950;2023-03-03T02:10:44;56.42;;;24.20;;
64857;SDS011;51335;51.148;6.950;2023-03-03T02:11:16;56.53;;;25.15;;
64857;SDS011;51335;51.148;6.950;2023-03-03T02:11:48;57.90;;;26.73;;
64857;SDS011;51335;51.148;6.950;2023-03-03T02:12:22;56.83;;;27.38;;
64857;SDS011;51335;51.148;6.950;2023-03-03T02:13:00;56.60;;;26.48;;
64857;SDS011;51335;51.148;6.950;2023-03-03T02:13:30;57.42;;;27.00;;
64857;SDS011;51335;51.148;6.950;2023-03-03T02:14:00;56.55;;;26.60;;
64857;SDS011;51335;51.148;6.950;2023-03-03T02:14:31;55.30;;;27.08;;
64857;SDS011;51335;51.148;6.950;2023-03-03T02:15:07;54.67;;;26.10;;
64857;SDS011;51335;51.148;6.950;2023-03-03T02:15:45;57.35;;;26.85;;
64857;SDS011;51335;51.148;6.950;2023-03-03T02:16:15;52.85;;;24.33;;
64857;SDS011;51335;51.148;6.950;2023-03-03T02:16:46;58.53;;;26.80;;
64857;SDS011;51335;51.148;6.950;2023-03-03T02:17:16;57.38;;;26.40;;
64857;SDS011;51335;51.148;6.950;2023-03-03T02:17:47;60.03;;;25.98;;
64857;SDS011;51335;51.148;6.950;2023-03-03T02:18:19;55.75;;;26.73;;
64857;SDS011;51335;51.148;6.950;2023-03-03T02:18:50;58.15;;;26.50;;
64857;SDS011;51335;51.148;6.950;2023-03-03T02:19:27;59.10;;;27.90;;
64857;SDS011;51335;51.148;6.950;2023-03-03T02:20:13;56.13;;;25.60;;
64857;SDS011;51335;51.148;6.950;2023-03-03T02:21:54;55.15;;;24.85;;
64857;SDS011;51335;51.148;6.950;2023-03-03T02:22:46;57.55;;;24.95;;
64857;SDS011;51335;51.148;6.950;2023-03-03T02:23:44;53.25;;;23.02;;
64857;SDS011;51335;51.148;6.950;2023-03-03T02:24:27;52.13;;;24.05;;
64857;SDS011;51335;51.148;6.950;2023-03-03T02:25:04;55.75;;;25.10;;
64857;SDS011;51335;51.148;6.950;2023-03-03T02:26:31;52.30;;;23.48;;
64857;SDS011;51335;51.148;6.950;2023-03-03T02:27:04;53.08;;;25.45;;
64857;SDS011;51335;51.148;6.950;2023-03-03T02:27:34;52.47;;;23.80;;
64857;SDS011;51335;51.148;6.950;2023-03-03T02:28:06;59.80;;;26.23;;
64857;SDS011;51335;51.148;6.950;2023-03-03T02:28:36;56.53;;;24.02;;
64857;SDS011;51335;51.148;6.950;2023-03-03T02:29:08;55.67;;;25.40;;
64857;SDS011;51335;51.148;6.950;2023-03-03T02:29:39;54.63;;;25.05;;
64857;SDS011;51335;51.148;6.950;2023-03-03T02:30:17;56.40;;;26.65;;
64857;SDS011;51335;51.148;6.950;2023-03-03T02:30:52;55.13;;;22.85;;
64857;SDS011;51335;51.148;6.950;2023-03-03T02:31:25;57.58;;;26.42;;
64857;SDS011;51335;51.148;6.950;2023-03-03T02:31:57;58.72;;;25.73;;
64857;SDS011;51335;51.148;6.950;2023-03-03T02:32:28;59.13;;;25.63;;
64857;SDS011;51335;51.148;6.950;2023-03-03T02:32:58;55.80;;;24.35;;
64857;SDS011;51335;51.148;6.950;2023-03-03T02:33:28;59.70;;;26.30;;
64857;SDS011;51335;51.148;6.950;2023-03-03T02:33:59;56.85;;;25.92;;
64857;SDS011;51335;51.148;6.950;2023-03-03T02:34:29;61.10;;;26.35;;
64857;SDS011;51335;51.148;6.950;2023-03-03T02:34:59;59.10;;;27.92;;
64857;SDS011;51335;51.148;6.950;2023-03-03T02:35:31;56.80;;;26.05;;
64857;SDS011;51335;51.148;6.950;2023-03-03T02:36:04;60.22;;;26.60;;
64857;SDS011;51335;51.148;6.950;2023-03-03T02:36:36;60.03;;;26.27;;
64857;SDS011;51335;51.148;6.950;2023-03-03T02:37:07;61.53;;;26.70;;
64857;SDS011;51335;51.148;6.950;2023-03-03T02:37:37;62.53;;;26.63;;
64857;SDS011;51335;51.148;6.950;2023-03-03T02:39:53;60.60;;;25.77;;
64857;SDS011;51335;51.148;6.950;2023-03-03T02:40:23;61.15;;;26.58;;
64857;SDS011;51335;51.148;6.950;2023-03-03T02:41:06;59.75;;;27.23;;
64857;SDS011;51335;51.148;6.950;2023-03-03T02:42:26;52.70;;;24.33;;
64857;SDS011;51335;51.148;6.950;2023-03-03T02:42:59;53.95;;;25.33;;
64857;SDS011;51335;51.148;6.950;2023-03-03T02:43:33;54.67;;;26.38;;
64857;SDS011;51335;51.148;6.950;2023-03-03T02:44:11;55.17;;;24.55;;
64857;SDS011;51335;51.148;6.950;2023-03-03T02:44:43;54.35;;;25.50;;
64857;SDS011;51335;51.148;6.950;2023-03-03T02:45:13;57.83;;;26.70;;
64857;SDS011;51335;51.148;6.950;2023-03-03T02:45:44;59.33;;;27.08;;
64857;SDS011;51335;51.148;6.950;2023-03-03T02:46:14;60.28;;;27.15;;
64857;SDS011;51335;51.148;6.950;2023-03-03T02:46:45;63.80;;;28.42;;
64857;SDS011;51335;51.148;6.950;2023-03-03T02:47:17;60.10;;;27.80;;
64857;SDS011;51335;51.148;6.950;2023-03-03T02:47:48;55.42;;;26.15;;
64857;SDS011;51335;51.148;6.950;2023-03-03T02:48:19;58.40;;;27.45;;
64857;SDS011;51335;51.148;6.950;2023-03-03T02:48:49;61.42;;;27.50;;
64857;SDS011;51335;51.148;6.950;2023-03-03T02:49:23;57.97;;;27.55;;
64857;SDS011;51335;51.148;6.950;2023-03-03T02:49:55;58.22;;;25.75;;
64857;SDS011;51335;51.148;6.950;2023-03-03T02:50:25;56.33;;;26.30;;
64857;SDS011;51335;51.148;6.950;2023-03-03T02:50:55;50.95;;;25.27;;
64857;SDS011;51335;51.148;6.950;2023-03-03T02:51:25;54.78;;;25.80;;
64857;SDS011;51335;51.148;6.950;2023-03-03T02:51:56;52.85;;;25.00;;
64857;SDS011;51335;51.148;6.950;2023-03-03T02:52:26;50.88;;;23.83;;
64857;SDS011;51335;51.148;6.950;2023-03-03T02:52:57;49.72;;;23.63;;
64857;SDS011;51335;51.148;6.950;2023-03-03T02:53:27;48.38;;;24.08;;
64857;SDS011;51335;51.148;6.950;2023-03-03T02:53:57;46.85;;;23.83;;
64857;SDS011;51335;51.148;6.950;2023-03-03T02:54:28;48.03;;;23.98;;
64857;SDS011;51335;51.148;6.950;2023-03-03T02:54:59;50.28;;;24.10;;
64857;SDS011;51335;51.148;6.950;2023-03-03T02:55:29;51.63;;;24.42;;
64857;SDS011;51335;51.148;6.950;2023-03-03T02:55:59;51.40;;;24.55;;
64857;SDS011;51335;51.148;6.950;2023-03-03T02:56:30;49.78;;;23.95;;
64857;SDS011;51335;51.148;6.950;2023-03-03T02:57:00;50.53;;;24.02;;
64857;SDS011;51335;51.148;6.950;2023-03-03T02:57:31;48.50;;;22.65;;
64857;SDS011;51335;51.148;6.950;2023-03-03T02:58:01;43.65;;;23.05;;
64857;SDS011;51335;51.148;6.950;2023-03-03T02:58:31;41.78;;;21.13;;
64857;SDS011;51335;51.148;6.950;2023-03-03T02:59:02;47.78;;;23.42;;
64857;SDS011;51335;51.148;6.950;2023-03-03T02:59:33;47.20;;;22.38;;
64857;SDS011;51335;51.148;6.950;2023-03-03T03:00:04;48.67;;;23.85;;
64857;SDS011;51335;51.148;6.950;2023-03-03T03:00:35;46.20;;;23.50;;
64857;SDS011;51335;51.148;6.950;2023-03-03T03:01:05;48.28;;;23.48;;
64857;SDS011;51335;51.148;6.950;2023-03-03T03:01:35;48.08;;;23.73;;
64857;SDS011;51335;51.148;6.950;2023-03-03T03:02:06;50.58;;;23.90;;
64857;SDS011;51335;51.148;6.950;2023-03-03T03:02:36;50.38;;;24.20;;
64857;SDS011;51335;51.148;6.950;2023-03-03T03:03:06;47.83;;;23.10;;
64857;SDS011;51335;51.148;6.950;2023-03-03T03:03:37;46.05;;;22.33;;
64857;SDS011;51335;51.148;6.950;2023-03-03T03:04:09;53.00;;;23.75;;
64857;SDS011;51335;51.148;6.950;2023-03-03T03:04:41;45.00;;;22.30;;
64857;SDS011;51335;51.148;6.950;2023-03-03T03:05:11;51.42;;;24.13;;
64857;SDS011;51335;51.148;6.950;2023-03-03T03:05:41;47.45;;;22.88;;
64857;SDS011;51335;51.148;6.950;2023-03-03T03:06:12;49.15;;;23.88;;
64857;SDS011;51335;51.148;6.950;2023-03-03T03:06:43;48.58;;;22.88;;
64857;SDS011;51335;51.148;6.950;2023-03-03T03:07:14;50.17;;;23.33;;
64857;SDS011;51335;51.148;6.950;2023-03-03T03:07:44;45.38;;;22.60;;
64857;SDS011;51335;51.148;6.950;2023-03-03T03:08:14;49.33;;;24.08;;
64857;SDS011;51335;51.148;6.950;2023-03-03T03:08:44;47.75;;;22.85;;
64857;SDS011;51335;51.148;6.950;2023-03-03T03:09:15;49.15;;;23.73;;
64857;SDS011;51335;51.148;6.950;2023-03-03T03:09:46;48.10;;;23.23;;
64857;SDS011;51335;51.148;6.950;2023-03-03T03:10:16;47.08;;;22.67;;
64857;SDS011;51335;51.148;6.950;2023-03-03T03:10:46;51.13;;;24.48;;
64857;SDS011;51335;51.148;6.950;2023-03-03T03:11:17;46.92;;;23.27;;
64857;SDS011;51335;51.148;6.950;2023-03-03T03:11:47;47.03;;;22.63;;
64857;SDS011;51335;51.148;6.950;2023-03-03T03:12:17;45.80;;;22.73;;
64857;SDS011;51335;51.148;6.950;2023-03-03T03:12:48;45.55;;;22.83;;
64857;SDS011;51335;51.148;6.950;2023-03-03T03:13:18;47.92;;;22.45;;
64857;SDS011;51335;51.148;6.950;2023-03-03T03:13:48;47.13;;;23.23;;
64857;SDS011;51335;51.148;6.950;2023-03-03T03:14:18;46.30;;;22.90;;
64857;SDS011;51335;51.148;6.950;2023-03-03T03:14:49;46.92;;;22.58;;
64857;SDS011;51335;51.148;6.950;2023-03-03T03:15:19;48.92;;;23.17;;
64857;SDS011;51335;51.148;6.950;2023-03-03T03:15:50;47.17;;;23.30;;
64857;SDS011;51335;51.148;6.950;2023-03-03T03:16:20;48.03;;;23.63;;
64857;SDS011;51335;51.148;6.950;2023-03-03T03:16:50;48.13;;;24.00;;
64857;SDS011;51335;51.148;6.950;2023-03-03T03:17:21;49.30;;;23.70;;
64857;SDS011;51335;51.148;6.950;2023-03-03T03:17:51;46.67;;;23.70;;
64857;SDS011;51335;51.148;6.950;2023-03-03T03:18:21;50.08;;;23.73;;
64857;SDS011;51335;51.148;6.950;2023-03-03T03:18:52;51.22;;;24.13;;
64857;SDS011;51335;51.148;6.950;2023-03-03T03:19:22;51.97;;;23.75;;
64857;SDS011;51335;51.148;6.950;2023-03-03T03:19:52;49.65;;;23.42;;
64857;SDS011;51335;51.148;6.950;2023-03-03T03:20:22;46.78;;;23.25;;
64857;SDS011;51335;51.148;6.950;2023-03-03T03:20:53;46.92;;;22.70;;
64857;SDS011;51335;51.148;6.950;2023-03-03T03:21:23;49.15;;;23.25;;
64857;SDS011;51335;51.148;6.950;2023-03-03T03:21:53;50.78;;;24.05;;
64857;SDS011;51335;51.148;6.950;2023-03-03T03:22:23;51.65;;;24.20;;
64857;SDS011;51335;51.148;6.950;2023-03-03T03:22:54;49.58;;;24.02;;
64857;SDS011;51335;51.148;6.950;2023-03-03T03:23:24;46.13;;;22.38;;
64857;SDS011;51335;51.148;6.950;2023-03-03T03:23:54;49.00;;;23.80;;
64857;SDS011;51335;51.148;6.950;2023-03-03T03:24:25;51.33;;;23.92;;
64857;SDS011;51335;51.148;6.950;2023-03-03T03:24:55;48.95;;;23.75;;
64857;SDS011;51335;51.148;6.950;2023-03-03T03:25:26;50.38;;;24.10;;
64857;SDS011;51335;51.148;6.950;2023-03-03T03:25:56;49.88;;;23.88;;
64857;SDS011;51335;51.148;6.950;2023-03-03T03:26:26;48.78;;;22.90;;
64857;SDS011;51335;51.148;6.950;2023-03-03T03:26:56;55.28;;;25.38;;